sensor_id;sensor_type;location;lat;lon;timestamp;P1;durP1;ratioP1;P2;durP2;ratioP2
39314;SDS011;28703;44.412;11.918;2023-08-08T00:01:37;148.93;;;139.55;;
39314;SDS011;28703;44.412;11.918;2023-08-08T00:04:02;333.63;;;311.27;;
39314;SDS011;28703;44.412;11.918;2023-08-08T00:06:29;15.75;;;14.82;;
39314;SDS011;28703;44.412;11.918;2023-08-08T00:08:54;41.80;;;39.35;;
39314;SDS011;28703;44.412;11.918;2023-08-08T00:11:20;45.45;;;42.53;;
39314;SDS011;28703;44.412;11.918;2023-08-08T00:13:46;46.80;;;44.05;;
39314;SDS011;28703;44.412;11.918;2023-08-08T00:16:12;47.53;;;44.80;;
39314;SDS011;28703;44.412;11.918;2023-08-08T00:18:38;47.78;;;45.10;;
39314;SDS011;28703;44.412;11.918;2023-08-08T00:21:03;51.63;;;48.40;;
39314;SDS011;28703;44.412;11.918;2023-08-08T00:23:29;51.45;;;48.50;;
39314;SDS011;28703;44.412;11.918;2023-08-08T00:25:55;64.25;;;59.88;;
39314;SDS011;28703;44.412;11.918;2023-08-08T00:28:21;122.70;;;115.05;;
39314;SDS011;28703;44.412;11.918;2023-08-08T00:30:47;416.50;;;387.67;;
39314;SDS011;28703;44.412;11.918;2023-08-08T00:33:12;401.40;;;374.20;;
39314;SDS011;28703;44.412;11.918;2023-08-08T00:35:38;441.13;;;410.00;;
39314;SDS011;28703;44.412;11.918;2023-08-08T00:38:04;401.92;;;374.13;;
39314;SDS011;28703;44.412;11.918;2023-08-08T00:40:30;419.25;;;390.33;;
39314;SDS011;28703;44.412;11.918;2023-08-08T00:42:56;423.17;;;393.38;;
39314;SDS011;28703;44.412;11.918;2023-08-08T00:45:21;171.77;;;160.65;;
39314;SDS011;28703;44.412;11.918;2023-08-08T00:47:47;188.85;;;176.57;;
39314;SDS011;28703;44.412;11.918;2023-08-08T00:50:13;158.93;;;148.70;;
39314;SDS011;28703;44.412;11.918;2023-08-08T00:52:39;412.27;;;383.65;;
39314;SDS011;28703;44.412;11.918;2023-08-08T00:55:07;48.00;;;44.90;;
39314;SDS011;28703;44.412;11.918;2023-08-08T00:57:33;94.88;;;89.18;;
39314;SDS011;28703;44.412;11.918;2023-08-08T01:00:05;390.00;;;363.02;;
39314;SDS011;28703;44.412;11.918;2023-08-08T01:02:32;369.58;;;344.30;;
39314;SDS011;28703;44.412;11.918;2023-08-08T01:04:58;303.80;;;282.73;;
39314;SDS011;28703;44.412;11.918;2023-08-08T01:07:38;420.02;;;390.65;;
39314;SDS011;28703;44.412;11.918;2023-08-08T01:10:12;348.67;;;324.45;;
39314;SDS011;28703;44.412;11.918;2023-08-08T01:12:44;345.48;;;320.95;;
39314;SDS011;28703;44.412;11.918;2023-08-08T01:15:13;183.45;;;171.40;;
39314;SDS011;28703;44.412;11.918;2023-08-08T01:17:39;180.75;;;168.90;;
39314;SDS011;28703;44.412;11.918;2023-08-08T01:20:07;313.20;;;291.85;;
39314;SDS011;28703;44.412;11.918;2023-08-08T01:25:25;230.75;;;214.98;;
39314;SDS011;28703;44.412;11.918;2023-08-08T01:27:51;407.67;;;379.50;;
39314;SDS011;28703;44.412;11.918;2023-08-08T01:30:17;259.83;;;242.27;;
39314;SDS011;28703;44.412;11.918;2023-08-08T01:32:42;405.60;;;377.45;;
39314;SDS011;28703;44.412;11.918;2023-08-08T01:35:08;400.17;;;372.50;;
39314;SDS011;28703;44.412;11.918;2023-08-08T01:37:44;372.35;;;346.77;;
39314;SDS011;28703;44.412;11.918;2023-08-08T01:40:17;297.20;;;277.35;;
39314;SDS011;28703;44.412;11.918;2023-08-08T01:42:46;202.50;;;189.10;;
39314;SDS011;28703;44.412;11.918;2023-08-08T01:45:14;269.05;;;250.23;;
39314;SDS011;28703;44.412;11.918;2023-08-08T01:47:41;240.70;;;224.57;;
39314;SDS011;28703;44.412;11.918;2023-08-08T01:50:07;224.52;;;209.25;;
39314;SDS011;28703;44.412;11.918;2023-08-08T01:52:34;174.57;;;163.48;;
39314;SDS011;28703;44.412;11.918;2023-08-08T01:55:02;285.50;;;266.00;;
39314;SDS011;28703;44.412;11.918;2023-08-08T01:57:28;66.65;;;62.97;;
39314;SDS011;28703;44.412;11.918;2023-08-08T01:59:54;14.52;;;13.73;;
39314;SDS011;28703;44.412;11.918;2023-08-08T02:02:20;27.15;;;25.45;;
39314;SDS011;28703;44.412;11.918;2023-08-08T02:04:45;30.27;;;28.58;;
39314;SDS011;28703;44.412;11.918;2023-08-08T02:07:11;59.08;;;55.63;;
39314;SDS011;28703;44.412;11.918;2023-08-08T02:09:37;150.40;;;140.93;;
39314;SDS011;28703;44.412;11.918;2023-08-08T02:12:03;213.52;;;199.07;;
39314;SDS011;28703;44.412;11.918;2023-08-08T02:14:31;188.05;;;175.43;;
39314;SDS011;28703;44.412;11.918;2023-08-08T02:16:57;328.65;;;305.50;;
39314;SDS011;28703;44.412;11.918;2023-08-08T02:19:23;167.13;;;156.48;;
39314;SDS011;28703;44.412;11.918;2023-08-08T02:21:49;143.13;;;133.70;;
39314;SDS011;28703;44.412;11.918;2023-08-08T02:24:17;28.90;;;27.30;;
39314;SDS011;28703;44.412;11.918;2023-08-08T02:26:43;176.88;;;165.05;;
39314;SDS011;28703;44.412;11.918;2023-08-08T02:29:09;211.77;;;197.38;;
39314;SDS011;28703;44.412;11.918;2023-08-08T02:31:35;214.43;;;199.70;;
39314;SDS011;28703;44.412;11.918;2023-08-08T02:34:01;248.70;;;231.45;;
39314;SDS011;28703;44.412;11.918;2023-08-08T02:36:27;232.48;;;215.98;;
39314;SDS011;28703;44.412;11.918;2023-08-08T02:38:52;334.00;;;310.20;;
39314;SDS011;28703;44.412;11.918;2023-08-08T02:41:19;257.27;;;238.38;;
39314;SDS011;28703;44.412;11.918;2023-08-08T02:43:46;265.42;;;246.80;;
39314;SDS011;28703;44.412;11.918;2023-08-08T02:46:12;196.10;;;182.48;;
39314;SDS011;28703;44.412;11.918;2023-08-08T02:48:38;287.17;;;266.88;;
39314;SDS011;28703;44.412;11.918;2023-08-08T02:51:04;290.38;;;269.13;;
39314;SDS011;28703;44.412;11.918;2023-08-08T02:53:30;234.13;;;217.57;;
39314;SDS011;28703;44.412;11.918;2023-08-08T02:55:56;184.55;;;171.38;;
39314;SDS011;28703;44.412;11.918;2023-08-08T02:58:23;188.07;;;174.77;;
39314;SDS011;28703;44.412;11.918;2023-08-08T03:00:50;219.52;;;203.43;;
39314;SDS011;28703;44.412;11.918;2023-08-08T03:03:18;189.48;;;176.25;;
39314;SDS011;28703;44.412;11.918;2023-08-08T03:05:45;20.75;;;19.55;;
39314;SDS011;28703;44.412;11.918;2023-08-08T03:08:13;103.38;;;96.75;;
39314;SDS011;28703;44.412;11.918;2023-08-08T03:10:39;180.18;;;167.90;;
39314;SDS011;28703;44.412;11.918;2023-08-08T03:13:06;13.88;;;13.07;;
39314;SDS011;28703;44.412;11.918;2023-08-08T03:15:32;154.65;;;144.07;;
39314;SDS011;28703;44.412;11.918;2023-08-08T03:18:00;208.43;;;194.18;;
39314;SDS011;28703;44.412;11.918;2023-08-08T03:20:26;205.60;;;191.07;;
39314;SDS011;28703;44.412;11.918;2023-08-08T03:22:52;113.38;;;105.78;;
39314;SDS011;28703;44.412;11.918;2023-08-08T03:25:18;215.73;;;200.55;;
39314;SDS011;28703;44.412;11.918;2023-08-08T03:27:44;225.63;;;209.65;;
39314;SDS011;28703;44.412;11.918;2023-08-08T03:30:12;226.13;;;210.32;;
39314;SDS011;28703;44.412;11.918;2023-08-08T03:32:41;196.75;;;183.25;;
39314;SDS011;28703;44.412;11.918;2023-08-08T03:35:06;220.77;;;205.48;;
39314;SDS011;28703;44.412;11.918;2023-08-08T03:37:35;126.55;;;117.57;;
39314;SDS011;28703;44.412;11.918;2023-08-08T03:40:01;134.35;;;124.93;;
39314;SDS011;28703;44.412;11.918;2023-08-08T03:42:28;72.47;;;67.85;;
39314;SDS011;28703;44.412;11.918;2023-08-08T03:44:54;77.05;;;71.88;;
39314;SDS011;28703;44.412;11.918;2023-08-08T03:47:19;104.07;;;97.28;;
39314;SDS011;28703;44.412;11.918;2023-08-08T03:49:47;131.27;;;122.65;;
39314;SDS011;28703;44.412;11.918;2023-08-08T03:52:13;122.25;;;114.30;;
39314;SDS011;28703;44.412;11.918;2023-08-08T03:54:39;128.73;;;120.15;;
39314;SDS011;28703;44.412;11.918;2023-08-08T03:57:05;118.53;;;110.85;;
39314;SDS011;28703;44.412;11.918;2023-08-08T03:59:31;166.88;;;155.55;;
39314;SDS011;28703;44.412;11.918;2023-08-08T04:01:57;135.73;;;126.63;;
39314;SDS011;28703;44.412;11.918;2023-08-08T04:04:23;148.05;;;138.32;;
39314;SDS011;28703;44.412;11.918;2023-08-08T04:06:49;144.20;;;134.70;;
39314;SDS011;28703;44.412;11.918;2023-08-08T04:09:16;146.45;;;136.75;;
39314;SDS011;28703;44.412;11.918;2023-08-08T04:11:41;151.32;;;141.15;;
39314;SDS011;28703;44.412;11.918;2023-08-08T04:14:07;155.93;;;144.88;;
39314;SDS011;28703;44.412;11.918;2023-08-08T04:16:33;149.38;;;139.30;;
39314;SDS011;28703;44.412;11.918;2023-08-08T04:18:59;143.05;;;133.38;;
39314;SDS011;28703;44.412;11.918;2023-08-08T04:21:25;128.65;;;119.70;;
39314;SDS011;28703;44.412;11.918;2023-08-08T04:23:54;148.10;;;138.18;;
39314;SDS011;28703;44.412;11.918;2023-08-08T04:26:19;182.43;;;169.35;;
39314;SDS011;28703;44.412;11.918;2023-08-08T04:28:45;157.27;;;146.57;;
39314;SDS011;28703;44.412;11.918;2023-08-08T04:31:11;192.40;;;178.68;;
39314;SDS011;28703;44.412;11.918;2023-08-08T04:33:37;181.90;;;169.30;;
39314;SDS011;28703;44.412;11.918;2023-08-08T04:36:03;190.48;;;176.90;;
39314;SDS011;28703;44.412;11.918;2023-08-08T04:38:29;186.10;;;172.07;;
39314;SDS011;28703;44.412;11.918;2023-08-08T04:40:54;271.95;;;252.18;;
39314;SDS011;28703;44.412;11.918;2023-08-08T04:43:20;280.45;;;259.25;;
39314;SDS011;28703;44.412;11.918;2023-08-08T04:45:46;268.58;;;248.75;;
39314;SDS011;28703;44.412;11.918;2023-08-08T04:48:12;190.88;;;177.80;;
39314;SDS011;28703;44.412;11.918;2023-08-08T04:50:38;192.52;;;179.27;;
39314;SDS011;28703;44.412;11.918;2023-08-08T04:53:04;188.40;;;175.48;;
39314;SDS011;28703;44.412;11.918;2023-08-08T04:55:30;161.30;;;150.05;;
39314;SDS011;28703;44.412;11.918;2023-08-08T04:57:55;103.57;;;96.80;;
39314;SDS011;28703;44.412;11.918;2023-08-08T05:00:21;144.48;;;134.57;;
39314;SDS011;28703;44.412;11.918;2023-08-08T05:02:47;135.35;;;125.90;;
39314;SDS011;28703;44.412;11.918;2023-08-08T05:05:13;146.85;;;136.90;;
39314;SDS011;28703;44.412;11.918;2023-08-08T05:07:39;157.57;;;146.70;;
39314;SDS011;28703;44.412;11.918;2023-08-08T05:10:06;166.52;;;155.25;;
39314;SDS011;28703;44.412;11.918;2023-08-08T05:12:32;224.93;;;208.95;;
39314;SDS011;28703;44.412;11.918;2023-08-08T05:14:57;182.95;;;169.48;;
39314;SDS011;28703;44.412;11.918;2023-08-08T05:17:23;178.15;;;165.68;;
39314;SDS011;28703;44.412;11.918;2023-08-08T05:19:49;257.60;;;238.40;;
39314;SDS011;28703;44.412;11.918;2023-08-08T05:22:15;253.25;;;234.55;;
39314;SDS011;28703;44.412;11.918;2023-08-08T05:24:41;248.95;;;230.75;;
39314;SDS011;28703;44.412;11.918;2023-08-08T05:27:07;232.70;;;215.40;;
39314;SDS011;28703;44.412;11.918;2023-08-08T05:29:33;247.38;;;228.45;;
39314;SDS011;28703;44.412;11.918;2023-08-08T05:32:03;255.02;;;236.10;;
39314;SDS011;28703;44.412;11.918;2023-08-08T05:34:32;243.13;;;225.15;;
39314;SDS011;28703;44.412;11.918;2023-08-08T05:36:58;206.82;;;192.35;;
39314;SDS011;28703;44.412;11.918;2023-08-08T05:39:24;250.70;;;231.60;;
39314;SDS011;28703;44.412;11.918;2023-08-08T05:41:50;256.50;;;237.27;;
39314;SDS011;28703;44.412;11.918;2023-08-08T05:44:15;281.95;;;259.67;;
39314;SDS011;28703;44.412;11.918;2023-08-08T05:46:41;233.13;;;215.52;;
39314;SDS011;28703;44.412;11.918;2023-08-08T05:49:07;205.10;;;189.15;;
39314;SDS011;28703;44.412;11.918;2023-08-08T05:51:33;256.60;;;237.57;;
39314;SDS011;28703;44.412;11.918;2023-08-08T05:53:59;244.23;;;226.07;;
39314;SDS011;28703;44.412;11.918;2023-08-08T05:56:27;241.82;;;223.70;;
39314;SDS011;28703;44.412;11.918;2023-08-08T05:58:59;244.38;;;226.40;;
39314;SDS011;28703;44.412;11.918;2023-08-08T06:01:24;236.15;;;218.38;;
39314;SDS011;28703;44.412;11.918;2023-08-08T06:03:50;225.35;;;208.10;;
39314;SDS011;28703;44.412;11.918;2023-08-08T06:06:18;227.50;;;210.45;;
39314;SDS011;28703;44.412;11.918;2023-08-08T06:08:44;230.43;;;212.88;;
39314;SDS011;28703;44.412;11.918;2023-08-08T06:11:10;262.85;;;242.73;;
39314;SDS011;28703;44.412;11.918;2023-08-08T06:13:36;288.38;;;265.60;;
39314;SDS011;28703;44.412;11.918;2023-08-08T06:16:02;229.77;;;212.52;;
39314;SDS011;28703;44.412;11.918;2023-08-08T06:18:32;253.75;;;234.00;;
39314;SDS011;28703;44.412;11.918;2023-08-08T06:20:58;395.33;;;362.88;;
39314;SDS011;28703;44.412;11.918;2023-08-08T06:23:24;268.20;;;246.82;;
39314;SDS011;28703;44.412;11.918;2023-08-08T06:25:50;244.10;;;225.15;;
39314;SDS011;28703;44.412;11.918;2023-08-08T06:28:16;246.82;;;227.98;;
39314;SDS011;28703;44.412;11.918;2023-08-08T06:30:42;228.02;;;211.05;;
39314;SDS011;28703;44.412;11.918;2023-08-08T06:33:07;236.85;;;218.32;;
39314;SDS011;28703;44.412;11.918;2023-08-08T06:35:33;245.77;;;226.88;;
39314;SDS011;28703;44.412;11.918;2023-08-08T06:37:59;234.40;;;216.55;;
39314;SDS011;28703;44.412;11.918;2023-08-08T06:40:25;215.77;;;199.20;;
39314;SDS011;28703;44.412;11.918;2023-08-08T06:42:52;226.90;;;209.52;;
39314;SDS011;28703;44.412;11.918;2023-08-08T06:45:18;189.90;;;175.32;;
39314;SDS011;28703;44.412;11.918;2023-08-08T06:47:44;211.30;;;195.02;;
39314;SDS011;28703;44.412;11.918;2023-08-08T06:50:10;179.55;;;165.80;;
39314;SDS011;28703;44.412;11.918;2023-08-08T06:52:36;197.57;;;183.13;;
39314;SDS011;28703;44.412;11.918;2023-08-08T06:55:02;192.90;;;178.02;;
39314;SDS011;28703;44.412;11.918;2023-08-08T06:57:32;181.00;;;167.82;;
39314;SDS011;28703;44.412;11.918;2023-08-08T06:59:58;147.85;;;137.27;;
39314;SDS011;28703;44.412;11.918;2023-08-08T07:02:24;115.10;;;107.30;;
39314;SDS011;28703;44.412;11.918;2023-08-08T07:04:50;132.43;;;123.18;;
39314;SDS011;28703;44.412;11.918;2023-08-08T07:07:16;430.92;;;397.27;;
39314;SDS011;28703;44.412;11.918;2023-08-08T07:09:42;421.65;;;388.25;;
39314;SDS011;28703;44.412;11.918;2023-08-08T07:12:08;446.95;;;411.80;;
39314;SDS011;28703;44.412;11.918;2023-08-08T07:14:35;417.42;;;384.85;;
39314;SDS011;28703;44.412;11.918;2023-08-08T07:17:01;436.52;;;402.73;;
39314;SDS011;28703;44.412;11.918;2023-08-08T07:19:29;538.75;;;490.85;;
39314;SDS011;28703;44.412;11.918;2023-08-08T07:21:54;390.58;;;360.92;;
39314;SDS011;28703;44.412;11.918;2023-08-08T07:24:21;368.02;;;340.13;;
39314;SDS011;28703;44.412;11.918;2023-08-08T07:26:48;348.52;;;322.17;;
39314;SDS011;28703;44.412;11.918;2023-08-08T07:29:14;359.63;;;332.80;;
39314;SDS011;28703;44.412;11.918;2023-08-08T07:31:40;122.32;;;114.38;;
39314;SDS011;28703;44.412;11.918;2023-08-08T07:34:06;308.45;;;286.15;;
39314;SDS011;28703;44.412;11.918;2023-08-08T07:36:32;362.40;;;335.10;;
39314;SDS011;28703;44.412;11.918;2023-08-08T07:38:57;308.08;;;285.55;;
39314;SDS011;28703;44.412;11.918;2023-08-08T07:41:25;329.08;;;304.85;;
39314;SDS011;28703;44.412;11.918;2023-08-08T07:43:52;320.77;;;297.38;;
39314;SDS011;28703;44.412;11.918;2023-08-08T07:46:18;330.48;;;305.67;;
39314;SDS011;28703;44.412;11.918;2023-08-08T07:48:44;297.48;;;276.23;;
39314;SDS011;28703;44.412;11.918;2023-08-08T07:51:10;250.18;;;232.25;;
39314;SDS011;28703;44.412;11.918;2023-08-08T07:53:35;248.77;;;230.80;;
39314;SDS011;28703;44.412;11.918;2023-08-08T07:56:01;187.40;;;174.90;;
39314;SDS011;28703;44.412;11.918;2023-08-08T07:58:27;147.98;;;138.00;;
39314;SDS011;28703;44.412;11.918;2023-08-08T08:00:53;194.27;;;180.43;;
39314;SDS011;28703;44.412;11.918;2023-08-08T08:03:19;157.07;;;146.40;;
39314;SDS011;28703;44.412;11.918;2023-08-08T08:05:45;168.90;;;157.88;;
39314;SDS011;28703;44.412;11.918;2023-08-08T08:08:14;190.27;;;176.68;;
39314;SDS011;28703;44.412;11.918;2023-08-08T08:10:39;161.20;;;149.95;;
39314;SDS011;28703;44.412;11.918;2023-08-08T08:13:05;193.20;;;180.13;;
39314;SDS011;28703;44.412;11.918;2023-08-08T08:15:31;169.27;;;158.10;;
39314;SDS011;28703;44.412;11.918;2023-08-08T08:17:57;170.30;;;159.07;;
39314;SDS011;28703;44.412;11.918;2023-08-08T08:20:26;178.43;;;166.75;;
39314;SDS011;28703;44.412;11.918;2023-08-08T08:22:53;184.13;;;170.63;;
39314;SDS011;28703;44.412;11.918;2023-08-08T08:25:19;145.50;;;136.02;;
39314;SDS011;28703;44.412;11.918;2023-08-08T08:27:46;155.48;;;144.90;;
39314;SDS011;28703;44.412;11.918;2023-08-08T08:30:16;199.13;;;185.52;;
39314;SDS011;28703;44.412;11.918;2023-08-08T08:32:47;163.15;;;152.02;;
39314;SDS011;28703;44.412;11.918;2023-08-08T08:35:13;175.52;;;163.32;;
39314;SDS011;28703;44.412;11.918;2023-08-08T08:37:39;180.50;;;168.38;;
39314;SDS011;28703;44.412;11.918;2023-08-08T08:40:08;183.15;;;170.50;;
39314;SDS011;28703;44.412;11.918;2023-08-08T08:42:35;188.75;;;175.48;;
39314;SDS011;28703;44.412;11.918;2023-08-08T08:45:03;183.55;;;171.15;;
39314;SDS011;28703;44.412;11.918;2023-08-08T08:47:30;349.23;;;322.13;;
39314;SDS011;28703;44.412;11.918;2023-08-08T08:49:58;246.63;;;229.40;;
39314;SDS011;28703;44.412;11.918;2023-08-08T08:52:24;221.25;;;205.38;;
39314;SDS011;28703;44.412;11.918;2023-08-08T08:54:50;241.13;;;223.98;;
39314;SDS011;28703;44.412;11.918;2023-08-08T08:57:17;232.40;;;215.77;;
39314;SDS011;28703;44.412;11.918;2023-08-08T08:59:44;204.02;;;189.65;;
39314;SDS011;28703;44.412;11.918;2023-08-08T09:02:10;219.43;;;203.82;;
39314;SDS011;28703;44.412;11.918;2023-08-08T09:04:37;214.32;;;199.05;;
39314;SDS011;28703;44.412;11.918;2023-08-08T09:07:05;238.65;;;221.40;;
39314;SDS011;28703;44.412;11.918;2023-08-08T09:09:32;239.98;;;223.20;;
39314;SDS011;28703;44.412;11.918;2023-08-08T09:11:58;213.82;;;199.05;;
39314;SDS011;28703;44.412;11.918;2023-08-08T09:14:25;243.88;;;226.73;;
39314;SDS011;28703;44.412;11.918;2023-08-08T09:16:52;256.20;;;238.23;;
39314;SDS011;28703;44.412;11.918;2023-08-08T09:19:19;275.13;;;254.82;;
39314;SDS011;28703;44.412;11.918;2023-08-08T09:21:46;247.80;;;230.35;;
39314;SDS011;28703;44.412;11.918;2023-08-08T09:24:13;251.05;;;233.23;;
39314;SDS011;28703;44.412;11.918;2023-08-08T09:26:40;225.55;;;210.02;;
39314;SDS011;28703;44.412;11.918;2023-08-08T09:29:07;233.63;;;217.75;;
39314;SDS011;28703;44.412;11.918;2023-08-08T09:31:34;239.43;;;223.02;;
39314;SDS011;28703;44.412;11.918;2023-08-08T09:34:01;237.80;;;220.77;;
39314;SDS011;28703;44.412;11.918;2023-08-08T09:36:28;239.18;;;222.18;;
39314;SDS011;28703;44.412;11.918;2023-08-08T09:38:55;223.98;;;208.38;;
39314;SDS011;28703;44.412;11.918;2023-08-08T09:41:22;232.27;;;216.60;;
39314;SDS011;28703;44.412;11.918;2023-08-08T09:43:52;230.63;;;214.73;;
39314;SDS011;28703;44.412;11.918;2023-08-08T09:46:18;244.23;;;227.77;;
39314;SDS011;28703;44.412;11.918;2023-08-08T09:48:45;231.60;;;215.75;;
39314;SDS011;28703;44.412;11.918;2023-08-08T09:51:12;235.75;;;219.77;;
39314;SDS011;28703;44.412;11.918;2023-08-08T09:53:38;236.77;;;221.10;;
39314;SDS011;28703;44.412;11.918;2023-08-08T09:56:06;228.60;;;212.93;;
39314;SDS011;28703;44.412;11.918;2023-08-08T09:58:32;235.45;;;219.38;;
39314;SDS011;28703;44.412;11.918;2023-08-08T10:00:59;245.65;;;229.25;;
39314;SDS011;28703;44.412;11.918;2023-08-08T10:03:25;238.10;;;221.90;;
39314;SDS011;28703;44.412;11.918;2023-08-08T10:05:54;234.98;;;218.88;;
39314;SDS011;28703;44.412;11.918;2023-08-08T10:08:20;250.23;;;233.10;;
39314;SDS011;28703;44.412;11.918;2023-08-08T10:10:47;253.75;;;236.35;;
39314;SDS011;28703;44.412;11.918;2023-08-08T10:13:21;250.85;;;233.55;;
39314;SDS011;28703;44.412;11.918;2023-08-08T10:15:48;269.35;;;250.50;;
39314;SDS011;28703;44.412;11.918;2023-08-08T10:18:15;246.35;;;228.90;;
39314;SDS011;28703;44.412;11.918;2023-08-08T10:20:46;245.20;;;227.70;;
39314;SDS011;28703;44.412;11.918;2023-08-08T10:23:16;256.15;;;237.70;;
39314;SDS011;28703;44.412;11.918;2023-08-08T10:25:46;249.93;;;232.07;;
39314;SDS011;28703;44.412;11.918;2023-08-08T10:28:16;238.15;;;221.30;;
39314;SDS011;28703;44.412;11.918;2023-08-08T10:30:45;251.02;;;231.32;;
39314;SDS011;28703;44.412;11.918;2023-08-08T10:33:19;190.23;;;176.25;;
39314;SDS011;28703;44.412;11.918;2023-08-08T10:38:47;146.43;;;136.63;;
39314;SDS011;28703;44.412;11.918;2023-08-08T10:41:18;221.45;;;205.57;;
39314;SDS011;28703;44.412;11.918;2023-08-08T10:43:49;153.88;;;143.77;;
39314;SDS011;28703;44.412;11.918;2023-08-08T10:46:29;160.35;;;149.35;;
39314;SDS011;28703;44.412;11.918;2023-08-08T10:48:58;145.10;;;135.40;;
39314;SDS011;28703;44.412;11.918;2023-08-08T10:51:33;187.93;;;175.27;;
39314;SDS011;28703;44.412;11.918;2023-08-08T10:54:04;251.77;;;233.55;;
39314;SDS011;28703;44.412;11.918;2023-08-08T10:56:31;197.85;;;184.27;;
39314;SDS011;28703;44.412;11.918;2023-08-08T10:58:57;187.60;;;174.60;;
39314;SDS011;28703;44.412;11.918;2023-08-08T11:01:26;173.05;;;160.95;;
39314;SDS011;28703;44.412;11.918;2023-08-08T11:03:53;180.07;;;167.75;;
39314;SDS011;28703;44.412;11.918;2023-08-08T11:06:22;185.07;;;172.50;;
39314;SDS011;28703;44.412;11.918;2023-08-08T11:08:48;190.90;;;177.40;;
39314;SDS011;28703;44.412;11.918;2023-08-08T11:11:16;207.30;;;193.10;;
39314;SDS011;28703;44.412;11.918;2023-08-08T11:13:42;197.52;;;183.75;;
39314;SDS011;28703;44.412;11.918;2023-08-08T11:16:08;193.32;;;179.60;;
39314;SDS011;28703;44.412;11.918;2023-08-08T11:18:34;208.25;;;193.55;;
39314;SDS011;28703;44.412;11.918;2023-08-08T11:21:00;206.15;;;191.95;;
39314;SDS011;28703;44.412;11.918;2023-08-08T11:23:35;231.75;;;215.07;;
39314;SDS011;28703;44.412;11.918;2023-08-08T11:26:06;211.80;;;196.82;;
39314;SDS011;28703;44.412;11.918;2023-08-08T11:28:32;167.90;;;156.52;;
39314;SDS011;28703;44.412;11.918;2023-08-08T11:31:00;271.50;;;251.80;;
39314;SDS011;28703;44.412;11.918;2023-08-08T11:33:27;138.52;;;129.55;;
39314;SDS011;28703;44.412;11.918;2023-08-08T11:35:53;135.65;;;126.32;;
39314;SDS011;28703;44.412;11.918;2023-08-08T11:38:21;90.57;;;84.30;;
39314;SDS011;28703;44.412;11.918;2023-08-08T11:40:48;105.78;;;98.78;;
39314;SDS011;28703;44.412;11.918;2023-08-08T11:43:15;117.10;;;109.55;;
39314;SDS011;28703;44.412;11.918;2023-08-08T11:45:42;93.72;;;87.82;;
39314;SDS011;28703;44.412;11.918;2023-08-08T11:48:08;93.78;;;87.95;;
39314;SDS011;28703;44.412;11.918;2023-08-08T11:50:36;69.93;;;65.72;;
39314;SDS011;28703;44.412;11.918;2023-08-08T11:53:03;88.32;;;82.78;;
39314;SDS011;28703;44.412;11.918;2023-08-08T11:55:30;125.40;;;117.25;;
39314;SDS011;28703;44.412;11.918;2023-08-08T11:57:56;119.03;;;111.40;;
39314;SDS011;28703;44.412;11.918;2023-08-08T12:00:28;131.23;;;122.75;;
39314;SDS011;28703;44.412;11.918;2023-08-08T12:02:55;143.27;;;133.65;;
39314;SDS011;28703;44.412;11.918;2023-08-08T12:05:22;115.85;;;108.20;;
39314;SDS011;28703;44.412;11.918;2023-08-08T12:07:48;82.85;;;77.72;;
39314;SDS011;28703;44.412;11.918;2023-08-08T12:10:19;130.10;;;121.60;;
39314;SDS011;28703;44.412;11.918;2023-08-08T12:12:52;131.32;;;122.55;;
39314;SDS011;28703;44.412;11.918;2023-08-08T12:15:20;139.95;;;130.75;;
39314;SDS011;28703;44.412;11.918;2023-08-08T12:17:46;140.75;;;131.02;;
39314;SDS011;28703;44.412;11.918;2023-08-08T12:20:14;133.63;;;124.55;;
39314;SDS011;28703;44.412;11.918;2023-08-08T12:22:41;105.47;;;97.50;;
39314;SDS011;28703;44.412;11.918;2023-08-08T12:25:07;76.40;;;71.55;;
39314;SDS011;28703;44.412;11.918;2023-08-08T12:27:33;83.97;;;78.72;;
39314;SDS011;28703;44.412;11.918;2023-08-08T12:29:59;99.10;;;93.00;;
39314;SDS011;28703;44.412;11.918;2023-08-08T12:32:26;96.07;;;89.70;;
39314;SDS011;28703;44.412;11.918;2023-08-08T12:34:57;85.05;;;79.82;;
39314;SDS011;28703;44.412;11.918;2023-08-08T12:37:24;87.07;;;81.65;;
39314;SDS011;28703;44.412;11.918;2023-08-08T12:39:50;92.68;;;86.68;;
39314;SDS011;28703;44.412;11.918;2023-08-08T12:42:16;117.40;;;109.78;;
39314;SDS011;28703;44.412;11.918;2023-08-08T12:44:42;59.45;;;55.70;;
39314;SDS011;28703;44.412;11.918;2023-08-08T12:47:09;40.28;;;37.85;;
39314;SDS011;28703;44.412;11.918;2023-08-08T12:49:35;31.77;;;29.88;;
39314;SDS011;28703;44.412;11.918;2023-08-08T12:52:02;33.55;;;31.73;;
39314;SDS011;28703;44.412;11.918;2023-08-08T12:54:28;29.55;;;27.85;;
39314;SDS011;28703;44.412;11.918;2023-08-08T12:56:54;30.48;;;28.67;;
39314;SDS011;28703;44.412;11.918;2023-08-08T12:59:19;30.85;;;29.15;;
39314;SDS011;28703;44.412;11.918;2023-08-08T13:01:46;34.33;;;32.13;;
39314;SDS011;28703;44.412;11.918;2023-08-08T13:04:13;31.00;;;29.17;;
39314;SDS011;28703;44.412;11.918;2023-08-08T13:06:39;27.25;;;25.60;;
39314;SDS011;28703;44.412;11.918;2023-08-08T13:09:05;30.98;;;29.30;;
39314;SDS011;28703;44.412;11.918;2023-08-08T13:11:30;31.98;;;30.08;;
39314;SDS011;28703;44.412;11.918;2023-08-08T13:13:56;28.70;;;26.95;;
39314;SDS011;28703;44.412;11.918;2023-08-08T13:16:22;24.55;;;23.17;;
39314;SDS011;28703;44.412;11.918;2023-08-08T13:18:48;23.35;;;22.08;;
39314;SDS011;28703;44.412;11.918;2023-08-08T13:21:15;22.75;;;21.55;;
39314;SDS011;28703;44.412;11.918;2023-08-08T13:23:41;22.95;;;21.65;;
39314;SDS011;28703;44.412;11.918;2023-08-08T13:26:07;18.13;;;17.13;;
39314;SDS011;28703;44.412;11.918;2023-08-08T13:28:33;25.38;;;23.83;;
39314;SDS011;28703;44.412;11.918;2023-08-08T13:30:59;16.77;;;15.88;;
39314;SDS011;28703;44.412;11.918;2023-08-08T13:33:26;18.23;;;17.30;;
39314;SDS011;28703;44.412;11.918;2023-08-08T13:35:52;19.98;;;18.80;;
39314;SDS011;28703;44.412;11.918;2023-08-08T13:38:18;18.20;;;17.20;;
39314;SDS011;28703;44.412;11.918;2023-08-08T13:40:44;14.30;;;13.40;;
39314;SDS011;28703;44.412;11.918;2023-08-08T13:43:10;12.30;;;11.50;;
39314;SDS011;28703;44.412;11.918;2023-08-08T13:45:36;10.43;;;9.93;;
39314;SDS011;28703;44.412;11.918;2023-08-08T13:48:02;13.93;;;13.02;;
39314;SDS011;28703;44.412;11.918;2023-08-08T13:50:28;14.10;;;13.20;;
39314;SDS011;28703;44.412;11.918;2023-08-08T13:52:54;18.65;;;16.73;;